シンガポール/チャンギ の空港の天気 - METARとTAF

シンガポール・チャンギ国際空港 ( WSSS / SIN ) - シンガポール Changi
飛行場実況気象(Metar)
観測時間12/18 16:30 SGT (12/18 08:30 UTC)
風向・風速北東 5m/s
視程10km以上
天気現象
少しの雲 雲底高度 550m
全天の8割程度の雲 雲底高度 9140m
気温30℃
湿度62%
気圧1010hPa
METARWSSS 180830Z 04010KT 340V080 9999 FEW018 BKN300 30/22 Q1010 NOSIG
過去の天気等 Google飛行場航空写真 Wunderground天気予報

過去48時間のMETAR

飛行場予報(TAF)
発表時間: 12/18 16:00 SGT (12/18 08:00 UTC)
予報対象時間: 18日16時 SGT ~ 19日20時 SGT
風向・風速北 6m/s
視程10km以上
少しの雲 雲底高度 460m
全天の4割程度の雲 雲底高度 610m
19日12時 SGT ~ 19日16時 SGT に一時的に
視程4,500m
天気現象しゅう雨
少しの積乱雲 雲底高度 370m
全天の8割程度の雲 雲底高度 460m
TAF AMD WSSS 180800Z 1808/1912 01012KT 9999 FEW015 SCT020
TEMPO 1904/1908 4500 SHRA FEW012CB BKN015